x

South Bass Island, Oh (sbio1) Weather Station

8:00am - Sun 21st Dec 2014 All times are CST. -6 hours from GMT.

  • Wind
    3mph, 5mph gusts
  • Air Temp 32°f
  • Sea Pressure 1027.4mb
  • South Bass Island, Oh
  • South Bass Island, Oh

More Historic Weather Station data

Upgrade to MSW Pro to gain access to the past 30 days of data for over 8000 Wavebouys and Weather Stations around the globe.

Join Pro

Comparision Forecast

View Surf forecast
   
Sun 12/21 8:00am 3 5 mph 1027.4mb 32f
7:00am  -  1 mph 1027.5mb 30f
6:00am 1 2 mph 1027.3mb 31f
5:00am 5
mph
1027.1mb 31f
4:00am 3 5 mph 1026.7mb 31f
3:00am 6 7 mph 1026.9mb 31f
2:00am 5 6 mph 1026.9mb 30f
1:00am 5 6 mph 1026.5mb 30f
12:00am 3 6 mph 1026.2mb 30f
Sat 12/20 11:00pm 6 7 mph 1026.3mb 30f
10:00pm 5 6 mph 1026.5mb 29f
9:00pm 5 6 mph 1026.8mb 30f
8:00pm 3 5 mph 1026.8mb 31f
7:00pm 2
mph
1026.7mb 31f
6:00pm  -  mph 1026.5mb 31f
5:00pm  -  mph 1026.3mb 31f
4:00pm 1 2 mph 1026.1mb 31f
3:00pm  -  1 mph 1025.8mb 31f
2:00pm  -  1 mph 1025.6mb 31f
1:00pm 3 5 mph 1025.8mb 31f
12:00pm 3 5 mph 1026.1mb 31f
11:00am  -  mph 1026.6mb 31f
10:00am 3 5 mph 1027.3mb 31f
9:00am 3 5 mph 1027.5mb 31f
8:00am 5 6 mph 1026.8mb 30f
7:00am 2
mph
1026.7mb 30f
6:00am  -  1 mph 1026.6mb 30f
5:00am 3 6 mph 1026.7mb 30f
4:00am 3 5 mph 1026.6mb 31f
3:00am  -  1 mph 1026.7mb 30f
2:00am 3
mph
1026.5mb 31f
1:00am 1
mph
1026.1mb 30f
12:00am 1 2 mph 1026.1mb 30f
Fri 12/19 11:00pm  -  1 mph 1026.2mb 30f
10:00pm 2
mph
1026.5mb 30f
9:00pm 3 5 mph 1026.6mb 30f
8:00pm 5 6 mph 1026.7mb 30f
7:00pm 3 5 mph 1027.7mb 30f
6:00pm 5 6 mph 1027.6mb 30f
5:00pm 1 2 mph 1026.8mb 29f
4:00pm 2
mph
1026.1mb 29f
3:00pm 5 6 mph 1026.1mb 29f
2:00pm 7 8 mph 1025.5mb 29f
1:00pm 5 7 mph 1025.3mb 30f
12:00pm 7
mph
1025.5mb 30f
11:00am 7 8 mph 1026.1mb 29f
10:00am 8 10 mph 1025.9mb 29f
9:00am 11 13 mph 1025.8mb 29f
8:00am 5 8 mph 1025.8mb 29f
7:00am 3 6 mph 1025.4mb 29f
6:00am 7 9 mph 1024.8mb 29f
5:00am 5 8 mph 1024.1mb 29f
4:00am 6 8 mph 1023.6mb 29f
3:00am 6 9 mph 1023.6mb 30f
2:00am 16 17 mph 1023.1mb 32f
1:00am 17 18 mph 1022.8mb 31f
12:00am 17 18 mph 1022.8mb 31f
Thu 12/18 11:00pm 17 20 mph 1022.9mb 31f
10:00pm 17 18 mph 1022.9mb 31f
9:00pm 17 20 mph 1022.7mb 31f
8:00pm 17 18 mph 1022.7mb 31f
7:00pm 16 17 mph 1022.7mb 31f
6:00pm 16 17 mph 1022.8mb 31f
5:00pm 15 16 mph 1022.6mb 31f
4:00pm 15 16 mph 1022.8mb 31f
3:00pm 15 16 mph 1022.7mb 31f
2:00pm 16 17 mph 1022.5mb 32f
1:00pm 16 17 mph 1022.6mb 31f
12:00pm 16 17 mph 1023mb 31f
11:00am 16 17 mph 1023.6mb 31f
10:00am 15 16 mph 1024.4mb 31f
9:00am 17 18 mph 1024.4mb 31f
8:00am 15 16 mph 1023.5mb 31f
7:00am 15 17 mph 1023.7mb 31f
6:00am 15 16 mph 1023.5mb 31f
5:00am 18 21 mph 1023.6mb 31f
4:00am 17 20 mph 1023.3mb 31f
3:00am 25 26 mph 1023.3mb 31f
2:00am 25 26 mph 1023.4mb 31f
1:00am 26 28 mph 1023.1mb 30f
12:00am 28 32 mph 1022.8mb 30f
Wed 12/17 11:00pm 25 29 mph 1022.8mb 30f
10:00pm 34 38 mph 1022mb 30f
9:00pm 25 29 mph 1021.9mb 31f
8:00pm 24 25 mph 1021.6mb 31f
7:00pm 31 33 mph 1021.6mb 31f
6:00pm 26 30 mph 1021.4mb 31f
5:00pm 26 30 mph 1021mb 31f
4:00pm 28 29 mph 1020.4mb 30f